sensor_id;sensor_type;location;lat;lon;timestamp;P1;durP1;ratioP1;P2;durP2;ratioP2
13872;SDS011;7006;51.494;11.964;2023-07-13T00:00:59;5.00;;;2.50;;
13872;SDS011;7006;51.494;11.964;2023-07-13T00:03:27;4.73;;;2.43;;
13872;SDS011;7006;51.494;11.964;2023-07-13T00:06:00;4.00;;;2.63;;
13872;SDS011;7006;51.494;11.964;2023-07-13T00:08:29;7.27;;;2.57;;
13872;SDS011;7006;51.494;11.964;2023-07-13T00:10:58;3.20;;;2.37;;
13872;SDS011;7006;51.494;11.964;2023-07-13T00:13:26;3.90;;;2.20;;
13872;SDS011;7006;51.494;11.964;2023-07-13T00:15:54;6.90;;;2.23;;
13872;SDS011;7006;51.494;11.964;2023-07-13T00:18:22;4.40;;;2.60;;
13872;SDS011;7006;51.494;11.964;2023-07-13T00:20:50;3.53;;;2.23;;
13872;SDS011;7006;51.494;11.964;2023-07-13T00:23:18;3.03;;;2.30;;
13872;SDS011;7006;51.494;11.964;2023-07-13T00:25:46;5.57;;;2.20;;
13872;SDS011;7006;51.494;11.964;2023-07-13T00:28:15;5.03;;;2.57;;
13872;SDS011;7006;51.494;11.964;2023-07-13T00:30:44;4.93;;;2.60;;
13872;SDS011;7006;51.494;11.964;2023-07-13T00:33:14;6.37;;;2.50;;
13872;SDS011;7006;51.494;11.964;2023-07-13T00:35:42;4.67;;;2.90;;
13872;SDS011;7006;51.494;11.964;2023-07-13T00:38:11;3.13;;;2.40;;
13872;SDS011;7006;51.494;11.964;2023-07-13T00:40:39;4.13;;;2.27;;
13872;SDS011;7006;51.494;11.964;2023-07-13T00:43:09;4.13;;;2.70;;
13872;SDS011;7006;51.494;11.964;2023-07-13T00:48:25;4.03;;;3.20;;
13872;SDS011;7006;51.494;11.964;2023-07-13T00:50:54;4.23;;;2.50;;
13872;SDS011;7006;51.494;11.964;2023-07-13T00:53:23;5.90;;;3.40;;
13872;SDS011;7006;51.494;11.964;2023-07-13T00:55:53;3.20;;;2.87;;
13872;SDS011;7006;51.494;11.964;2023-07-13T00:58:21;4.20;;;3.10;;
13872;SDS011;7006;51.494;11.964;2023-07-13T01:00:50;5.83;;;2.70;;
13872;SDS011;7006;51.494;11.964;2023-07-13T01:03:18;4.57;;;3.17;;
13872;SDS011;7006;51.494;11.964;2023-07-13T01:05:50;5.97;;;3.43;;
13872;SDS011;7006;51.494;11.964;2023-07-13T01:08:18;5.10;;;3.27;;
13872;SDS011;7006;51.494;11.964;2023-07-13T01:10:53;4.60;;;3.30;;
13872;SDS011;7006;51.494;11.964;2023-07-13T01:13:22;4.67;;;2.73;;
13872;SDS011;7006;51.494;11.964;2023-07-13T01:15:50;3.30;;;2.60;;
13872;SDS011;7006;51.494;11.964;2023-07-13T01:18:20;3.30;;;2.90;;
13872;SDS011;7006;51.494;11.964;2023-07-13T01:20:55;4.33;;;3.33;;
13872;SDS011;7006;51.494;11.964;2023-07-13T01:23:23;4.97;;;3.23;;
13872;SDS011;7006;51.494;11.964;2023-07-13T01:25:52;7.20;;;3.30;;
13872;SDS011;7006;51.494;11.964;2023-07-13T01:28:21;5.27;;;3.60;;
13872;SDS011;7006;51.494;11.964;2023-07-13T01:30:52;3.97;;;3.37;;
13872;SDS011;7006;51.494;11.964;2023-07-13T01:33:20;4.23;;;3.03;;
13872;SDS011;7006;51.494;11.964;2023-07-13T01:35:49;3.60;;;3.10;;
13872;SDS011;7006;51.494;11.964;2023-07-13T01:38:20;5.33;;;3.50;;
13872;SDS011;7006;51.494;11.964;2023-07-13T01:40:49;3.83;;;3.37;;
13872;SDS011;7006;51.494;11.964;2023-07-13T01:43:17;3.73;;;3.30;;
13872;SDS011;7006;51.494;11.964;2023-07-13T01:45:45;5.27;;;3.50;;
13872;SDS011;7006;51.494;11.964;2023-07-13T01:48:13;8.90;;;3.80;;
13872;SDS011;7006;51.494;11.964;2023-07-13T01:50:41;4.77;;;3.47;;
13872;SDS011;7006;51.494;11.964;2023-07-13T01:53:09;6.33;;;3.80;;
13872;SDS011;7006;51.494;11.964;2023-07-13T01:55:41;4.73;;;3.77;;
13872;SDS011;7006;51.494;11.964;2023-07-13T01:58:09;5.17;;;4.20;;
13872;SDS011;7006;51.494;11.964;2023-07-13T02:00:37;5.23;;;4.00;;
13872;SDS011;7006;51.494;11.964;2023-07-13T02:03:05;4.00;;;3.60;;
13872;SDS011;7006;51.494;11.964;2023-07-13T02:05:33;5.10;;;3.43;;
13872;SDS011;7006;51.494;11.964;2023-07-13T02:08:01;5.07;;;4.07;;
13872;SDS011;7006;51.494;11.964;2023-07-13T02:10:29;6.63;;;3.93;;
13872;SDS011;7006;51.494;11.964;2023-07-13T02:13:00;4.37;;;3.60;;
13872;SDS011;7006;51.494;11.964;2023-07-13T02:15:28;5.10;;;3.73;;
13872;SDS011;7006;51.494;11.964;2023-07-13T02:17:56;5.43;;;4.10;;
13872;SDS011;7006;51.494;11.964;2023-07-13T02:20:24;4.40;;;3.97;;
13872;SDS011;7006;51.494;11.964;2023-07-13T02:22:52;6.43;;;4.40;;
13872;SDS011;7006;51.494;11.964;2023-07-13T02:25:20;5.20;;;4.67;;
13872;SDS011;7006;51.494;11.964;2023-07-13T02:27:50;7.53;;;3.50;;
13872;SDS011;7006;51.494;11.964;2023-07-13T02:30:20;6.30;;;3.57;;
13872;SDS011;7006;51.494;11.964;2023-07-13T02:32:49;4.70;;;3.87;;
13872;SDS011;7006;51.494;11.964;2023-07-13T02:35:17;5.10;;;4.10;;
13872;SDS011;7006;51.494;11.964;2023-07-13T02:37:45;6.97;;;3.50;;
13872;SDS011;7006;51.494;11.964;2023-07-13T02:40:14;7.90;;;4.00;;
13872;SDS011;7006;51.494;11.964;2023-07-13T02:42:42;6.80;;;3.83;;
13872;SDS011;7006;51.494;11.964;2023-07-13T02:45:10;4.37;;;3.97;;
13872;SDS011;7006;51.494;11.964;2023-07-13T02:47:41;4.63;;;3.80;;
13872;SDS011;7006;51.494;11.964;2023-07-13T02:50:09;5.73;;;4.07;;
13872;SDS011;7006;51.494;11.964;2023-07-13T02:52:37;6.67;;;3.87;;
13872;SDS011;7006;51.494;11.964;2023-07-13T02:55:06;4.20;;;3.80;;
13872;SDS011;7006;51.494;11.964;2023-07-13T02:57:34;5.97;;;4.10;;
13872;SDS011;7006;51.494;11.964;2023-07-13T03:00:02;4.93;;;3.60;;
13872;SDS011;7006;51.494;11.964;2023-07-13T03:02:33;4.97;;;3.90;;
13872;SDS011;7006;51.494;11.964;2023-07-13T03:05:04;4.77;;;4.20;;
13872;SDS011;7006;51.494;11.964;2023-07-13T03:07:32;6.33;;;4.70;;
13872;SDS011;7006;51.494;11.964;2023-07-13T03:10:01;5.27;;;4.50;;
13872;SDS011;7006;51.494;11.964;2023-07-13T03:12:30;7.00;;;4.37;;
13872;SDS011;7006;51.494;11.964;2023-07-13T03:14:58;7.83;;;5.07;;
13872;SDS011;7006;51.494;11.964;2023-07-13T03:17:26;5.33;;;4.63;;
13872;SDS011;7006;51.494;11.964;2023-07-13T03:19:54;6.90;;;4.67;;
13872;SDS011;7006;51.494;11.964;2023-07-13T03:22:24;7.47;;;4.30;;
13872;SDS011;7006;51.494;11.964;2023-07-13T03:24:54;4.87;;;4.37;;
13872;SDS011;7006;51.494;11.964;2023-07-13T03:27:22;4.63;;;4.17;;
13872;SDS011;7006;51.494;11.964;2023-07-13T03:29:50;5.07;;;4.57;;
13872;SDS011;7006;51.494;11.964;2023-07-13T03:32:18;5.83;;;4.43;;
13872;SDS011;7006;51.494;11.964;2023-07-13T03:34:46;6.73;;;4.37;;
13872;SDS011;7006;51.494;11.964;2023-07-13T03:37:14;6.87;;;3.87;;
13872;SDS011;7006;51.494;11.964;2023-07-13T03:39:45;6.60;;;4.50;;
13872;SDS011;7006;51.494;11.964;2023-07-13T03:42:14;6.07;;;4.57;;
13872;SDS011;7006;51.494;11.964;2023-07-13T03:44:42;4.50;;;4.07;;
13872;SDS011;7006;51.494;11.964;2023-07-13T03:47:17;4.77;;;4.37;;
13872;SDS011;7006;51.494;11.964;2023-07-13T03:49:45;5.10;;;4.27;;
13872;SDS011;7006;51.494;11.964;2023-07-13T03:52:13;5.40;;;4.70;;
13872;SDS011;7006;51.494;11.964;2023-07-13T03:54:41;7.13;;;4.77;;
13872;SDS011;7006;51.494;11.964;2023-07-13T03:57:12;5.07;;;4.50;;
13872;SDS011;7006;51.494;11.964;2023-07-13T03:59:40;6.27;;;4.70;;
13872;SDS011;7006;51.494;11.964;2023-07-13T04:02:08;5.83;;;4.53;;
13872;SDS011;7006;51.494;11.964;2023-07-13T04:04:36;5.60;;;5.10;;
13872;SDS011;7006;51.494;11.964;2023-07-13T04:07:05;7.73;;;5.20;;
13872;SDS011;7006;51.494;11.964;2023-07-13T04:09:34;8.83;;;4.50;;
13872;SDS011;7006;51.494;11.964;2023-07-13T04:12:02;6.67;;;5.00;;
13872;SDS011;7006;51.494;11.964;2023-07-13T04:14:33;5.70;;;5.00;;
13872;SDS011;7006;51.494;11.964;2023-07-13T04:17:01;6.67;;;4.80;;
13872;SDS011;7006;51.494;11.964;2023-07-13T04:19:29;6.03;;;5.10;;
13872;SDS011;7006;51.494;11.964;2023-07-13T04:21:57;6.37;;;4.50;;
13872;SDS011;7006;51.494;11.964;2023-07-13T04:24:25;6.83;;;5.03;;
13872;SDS011;7006;51.494;11.964;2023-07-13T04:26:53;6.10;;;4.90;;
13872;SDS011;7006;51.494;11.964;2023-07-13T04:29:24;5.40;;;4.67;;
13872;SDS011;7006;51.494;11.964;2023-07-13T04:31:55;8.00;;;5.53;;
13872;SDS011;7006;51.494;11.964;2023-07-13T04:34:23;5.67;;;5.03;;
13872;SDS011;7006;51.494;11.964;2023-07-13T04:36:51;5.33;;;4.73;;
13872;SDS011;7006;51.494;11.964;2023-07-13T04:39:19;6.90;;;5.03;;
13872;SDS011;7006;51.494;11.964;2023-07-13T04:41:48;6.90;;;5.03;;
13872;SDS011;7006;51.494;11.964;2023-07-13T04:44:16;6.10;;;5.50;;
13872;SDS011;7006;51.494;11.964;2023-07-13T04:46:44;6.83;;;4.90;;
13872;SDS011;7006;51.494;11.964;2023-07-13T04:49:15;5.97;;;4.90;;
13872;SDS011;7006;51.494;11.964;2023-07-13T04:51:43;8.20;;;5.17;;
13872;SDS011;7006;51.494;11.964;2023-07-13T04:54:11;5.20;;;4.60;;
13872;SDS011;7006;51.494;11.964;2023-07-13T04:56:39;9.10;;;4.97;;
13872;SDS011;7006;51.494;11.964;2023-07-13T04:59:07;6.20;;;5.13;;
13872;SDS011;7006;51.494;11.964;2023-07-13T05:01:35;8.70;;;5.23;;
13872;SDS011;7006;51.494;11.964;2023-07-13T05:04:04;6.63;;;4.90;;
13872;SDS011;7006;51.494;11.964;2023-07-13T05:06:34;7.30;;;5.27;;
13872;SDS011;7006;51.494;11.964;2023-07-13T05:09:02;10.53;;;5.33;;
13872;SDS011;7006;51.494;11.964;2023-07-13T05:11:32;6.90;;;5.23;;
13872;SDS011;7006;51.494;11.964;2023-07-13T05:14:00;9.40;;;4.90;;
13872;SDS011;7006;51.494;11.964;2023-07-13T05:16:29;7.93;;;5.10;;
13872;SDS011;7006;51.494;11.964;2023-07-13T05:18:57;5.77;;;4.80;;
13872;SDS011;7006;51.494;11.964;2023-07-13T05:21:25;7.33;;;5.47;;
13872;SDS011;7006;51.494;11.964;2023-07-13T05:23:56;5.87;;;4.47;;
13872;SDS011;7006;51.494;11.964;2023-07-13T05:26:24;6.70;;;4.97;;
13872;SDS011;7006;51.494;11.964;2023-07-13T05:28:53;6.80;;;4.97;;
13872;SDS011;7006;51.494;11.964;2023-07-13T05:31:21;6.53;;;4.80;;
13872;SDS011;7006;51.494;11.964;2023-07-13T05:33:49;7.10;;;4.80;;
13872;SDS011;7006;51.494;11.964;2023-07-13T05:36:17;6.30;;;5.30;;
13872;SDS011;7006;51.494;11.964;2023-07-13T05:38:45;8.10;;;5.00;;
13872;SDS011;7006;51.494;11.964;2023-07-13T05:41:16;7.43;;;4.77;;
13872;SDS011;7006;51.494;11.964;2023-07-13T05:43:44;8.63;;;5.10;;
13872;SDS011;7006;51.494;11.964;2023-07-13T05:46:12;5.20;;;4.70;;
13872;SDS011;7006;51.494;11.964;2023-07-13T05:48:40;7.20;;;4.20;;
13872;SDS011;7006;51.494;11.964;2023-07-13T05:51:08;5.23;;;4.70;;
13872;SDS011;7006;51.494;11.964;2023-07-13T05:53:36;6.70;;;4.73;;
13872;SDS011;7006;51.494;11.964;2023-07-13T05:56:04;5.87;;;5.00;;
13872;SDS011;7006;51.494;11.964;2023-07-13T05:58:35;6.13;;;4.20;;
13872;SDS011;7006;51.494;11.964;2023-07-13T06:01:04;4.80;;;4.10;;
13872;SDS011;7006;51.494;11.964;2023-07-13T06:03:32;5.53;;;4.20;;
13872;SDS011;7006;51.494;11.964;2023-07-13T06:06:00;6.40;;;4.70;;
13872;SDS011;7006;51.494;11.964;2023-07-13T06:08:28;6.20;;;4.53;;
13872;SDS011;7006;51.494;11.964;2023-07-13T06:11:01;6.07;;;4.60;;
13872;SDS011;7006;51.494;11.964;2023-07-13T06:13:29;6.80;;;4.60;;
13872;SDS011;7006;51.494;11.964;2023-07-13T06:16:01;4.90;;;4.03;;
13872;SDS011;7006;51.494;11.964;2023-07-13T06:18:29;6.20;;;4.23;;
13872;SDS011;7006;51.494;11.964;2023-07-13T06:20:57;7.20;;;3.50;;
13872;SDS011;7006;51.494;11.964;2023-07-13T06:23:25;5.97;;;3.20;;
13872;SDS011;7006;51.494;11.964;2023-07-13T06:25:53;5.03;;;3.67;;
13872;SDS011;7006;51.494;11.964;2023-07-13T06:28:21;5.40;;;3.70;;
13872;SDS011;7006;51.494;11.964;2023-07-13T06:30:49;4.40;;;3.70;;
13872;SDS011;7006;51.494;11.964;2023-07-13T06:33:20;4.80;;;3.40;;
13872;SDS011;7006;51.494;11.964;2023-07-13T06:35:48;5.57;;;4.00;;
13872;SDS011;7006;51.494;11.964;2023-07-13T06:38:16;4.27;;;3.13;;
13872;SDS011;7006;51.494;11.964;2023-07-13T06:40:44;6.00;;;3.87;;
13872;SDS011;7006;51.494;11.964;2023-07-13T06:43:12;6.50;;;3.57;;
13872;SDS011;7006;51.494;11.964;2023-07-13T06:45:43;5.20;;;3.63;;
13872;SDS011;7006;51.494;11.964;2023-07-13T06:48:14;4.97;;;3.23;;
13872;SDS011;7006;51.494;11.964;2023-07-13T06:50:45;6.07;;;4.80;;
13872;SDS011;7006;51.494;11.964;2023-07-13T06:53:14;4.40;;;3.53;;
13872;SDS011;7006;51.494;11.964;2023-07-13T06:55:43;8.50;;;3.87;;
13872;SDS011;7006;51.494;11.964;2023-07-13T06:58:11;5.03;;;2.90;;
13872;SDS011;7006;51.494;11.964;2023-07-13T07:00:39;6.77;;;3.20;;
13872;SDS011;7006;51.494;11.964;2023-07-13T07:03:08;5.90;;;3.10;;
13872;SDS011;7006;51.494;11.964;2023-07-13T07:05:36;4.93;;;2.80;;
13872;SDS011;7006;51.494;11.964;2023-07-13T07:08:06;6.43;;;3.00;;
13872;SDS011;7006;51.494;11.964;2023-07-13T07:10:35;4.60;;;2.47;;
13872;SDS011;7006;51.494;11.964;2023-07-13T07:13:03;6.03;;;2.53;;
13872;SDS011;7006;51.494;11.964;2023-07-13T07:15:31;3.60;;;2.30;;
13872;SDS011;7006;51.494;11.964;2023-07-13T07:17:59;6.37;;;2.90;;
13872;SDS011;7006;51.494;11.964;2023-07-13T07:20:27;4.30;;;2.40;;
13872;SDS011;7006;51.494;11.964;2023-07-13T07:22:57;8.10;;;2.50;;
13872;SDS011;7006;51.494;11.964;2023-07-13T07:25:28;3.57;;;2.30;;
13872;SDS011;7006;51.494;11.964;2023-07-13T07:28:00;6.53;;;2.67;;
13872;SDS011;7006;51.494;11.964;2023-07-13T07:30:28;7.13;;;2.90;;
13872;SDS011;7006;51.494;11.964;2023-07-13T07:32:56;3.80;;;2.70;;
13872;SDS011;7006;51.494;11.964;2023-07-13T07:35:24;6.87;;;2.53;;
13872;SDS011;7006;51.494;11.964;2023-07-13T07:37:55;5.60;;;3.27;;
13872;SDS011;7006;51.494;11.964;2023-07-13T07:40:23;4.70;;;2.27;;
13872;SDS011;7006;51.494;11.964;2023-07-13T07:42:54;4.47;;;2.30;;
13872;SDS011;7006;51.494;11.964;2023-07-13T07:45:22;4.60;;;2.60;;
13872;SDS011;7006;51.494;11.964;2023-07-13T07:47:50;3.67;;;2.63;;
13872;SDS011;7006;51.494;11.964;2023-07-13T07:50:20;3.67;;;2.10;;
13872;SDS011;7006;51.494;11.964;2023-07-13T07:52:48;5.87;;;2.57;;
13872;SDS011;7006;51.494;11.964;2023-07-13T07:55:16;4.53;;;2.60;;
13872;SDS011;7006;51.494;11.964;2023-07-13T07:57:44;4.27;;;3.03;;
13872;SDS011;7006;51.494;11.964;2023-07-13T08:00:15;4.67;;;2.87;;
13872;SDS011;7006;51.494;11.964;2023-07-13T08:02:44;5.77;;;3.47;;
13872;SDS011;7006;51.494;11.964;2023-07-13T08:05:12;6.03;;;2.93;;
13872;SDS011;7006;51.494;11.964;2023-07-13T08:07:40;4.50;;;3.47;;
13872;SDS011;7006;51.494;11.964;2023-07-13T08:10:08;4.40;;;3.60;;
13872;SDS011;7006;51.494;11.964;2023-07-13T08:12:37;6.03;;;3.20;;
13872;SDS011;7006;51.494;11.964;2023-07-13T08:15:06;4.83;;;3.40;;
13872;SDS011;7006;51.494;11.964;2023-07-13T08:17:37;6.60;;;3.77;;
13872;SDS011;7006;51.494;11.964;2023-07-13T08:20:06;5.57;;;3.10;;
13872;SDS011;7006;51.494;11.964;2023-07-13T08:22:34;11.70;;;4.63;;
13872;SDS011;7006;51.494;11.964;2023-07-13T08:25:02;8.47;;;3.40;;
13872;SDS011;7006;51.494;11.964;2023-07-13T08:27:30;5.60;;;3.77;;
13872;SDS011;7006;51.494;11.964;2023-07-13T08:29:58;5.47;;;3.63;;
13872;SDS011;7006;51.494;11.964;2023-07-13T08:32:26;7.20;;;3.53;;
13872;SDS011;7006;51.494;11.964;2023-07-13T08:34:57;4.60;;;3.07;;
13872;SDS011;7006;51.494;11.964;2023-07-13T08:37:25;5.07;;;3.00;;
13872;SDS011;7006;51.494;11.964;2023-07-13T08:39:53;10.03;;;3.50;;
13872;SDS011;7006;51.494;11.964;2023-07-13T08:42:31;4.93;;;2.90;;
13872;SDS011;7006;51.494;11.964;2023-07-13T08:45:03;6.50;;;3.20;;
13872;SDS011;7006;51.494;11.964;2023-07-13T08:47:34;3.80;;;2.63;;
13872;SDS011;7006;51.494;11.964;2023-07-13T08:50:08;7.67;;;3.40;;
13872;SDS011;7006;51.494;11.964;2023-07-13T08:52:40;4.50;;;3.10;;
13872;SDS011;7006;51.494;11.964;2023-07-13T08:55:12;6.07;;;3.10;;
13872;SDS011;7006;51.494;11.964;2023-07-13T08:57:41;7.50;;;3.00;;
13872;SDS011;7006;51.494;11.964;2023-07-13T09:00:10;6.17;;;3.20;;
13872;SDS011;7006;51.494;11.964;2023-07-13T09:02:41;9.30;;;2.73;;
13872;SDS011;7006;51.494;11.964;2023-07-13T09:05:13;6.60;;;3.10;;
13872;SDS011;7006;51.494;11.964;2023-07-13T09:07:47;4.73;;;2.80;;
13872;SDS011;7006;51.494;11.964;2023-07-13T09:10:17;5.40;;;3.10;;
13872;SDS011;7006;51.494;11.964;2023-07-13T09:12:49;7.63;;;3.23;;
13872;SDS011;7006;51.494;11.964;2023-07-13T09:15:21;7.60;;;3.10;;
13872;SDS011;7006;51.494;11.964;2023-07-13T09:17:51;4.43;;;3.00;;
13872;SDS011;7006;51.494;11.964;2023-07-13T09:20:25;5.77;;;3.07;;
13872;SDS011;7006;51.494;11.964;2023-07-13T09:22:55;6.50;;;3.60;;
13872;SDS011;7006;51.494;11.964;2023-07-13T09:25:24;4.90;;;2.90;;
13872;SDS011;7006;51.494;11.964;2023-07-13T09:27:56;6.30;;;3.00;;
13872;SDS011;7006;51.494;11.964;2023-07-13T09:30:27;4.90;;;2.87;;
13872;SDS011;7006;51.494;11.964;2023-07-13T09:32:58;3.73;;;2.77;;
13872;SDS011;7006;51.494;11.964;2023-07-13T09:35:29;4.00;;;2.47;;
13872;SDS011;7006;51.494;11.964;2023-07-13T09:37:58;3.60;;;2.40;;
13872;SDS011;7006;51.494;11.964;2023-07-13T09:40:30;4.60;;;2.60;;
13872;SDS011;7006;51.494;11.964;2023-07-13T09:42:58;4.10;;;2.30;;
13872;SDS011;7006;51.494;11.964;2023-07-13T09:45:29;6.90;;;2.80;;
13872;SDS011;7006;51.494;11.964;2023-07-13T09:48:03;5.13;;;2.90;;
13872;SDS011;7006;51.494;11.964;2023-07-13T09:50:35;4.97;;;2.23;;
13872;SDS011;7006;51.494;11.964;2023-07-13T09:53:03;6.33;;;2.80;;
13872;SDS011;7006;51.494;11.964;2023-07-13T09:55:32;4.27;;;2.43;;
13872;SDS011;7006;51.494;11.964;2023-07-13T09:58:04;5.07;;;2.57;;
13872;SDS011;7006;51.494;11.964;2023-07-13T10:00:33;7.57;;;3.00;;
13872;SDS011;7006;51.494;11.964;2023-07-13T10:03:02;3.53;;;2.50;;
13872;SDS011;7006;51.494;11.964;2023-07-13T10:05:41;3.80;;;2.47;;
13872;SDS011;7006;51.494;11.964;2023-07-13T10:08:20;3.03;;;2.07;;
13872;SDS011;7006;51.494;11.964;2023-07-13T10:10:52;6.73;;;3.00;;
13872;SDS011;7006;51.494;11.964;2023-07-13T10:13:32;5.60;;;2.77;;
13872;SDS011;7006;51.494;11.964;2023-07-13T10:16:02;3.20;;;2.57;;
13872;SDS011;7006;51.494;11.964;2023-07-13T10:18:32;3.57;;;2.50;;
13872;SDS011;7006;51.494;11.964;2023-07-13T10:21:11;3.87;;;2.13;;
13872;SDS011;7006;51.494;11.964;2023-07-13T10:23:40;4.27;;;2.50;;
13872;SDS011;7006;51.494;11.964;2023-07-13T10:26:12;4.30;;;2.17;;
13872;SDS011;7006;51.494;11.964;2023-07-13T10:28:40;3.80;;;2.60;;
13872;SDS011;7006;51.494;11.964;2023-07-13T10:31:10;4.77;;;2.90;;
13872;SDS011;7006;51.494;11.964;2023-07-13T10:33:39;3.30;;;2.70;;
13872;SDS011;7006;51.494;11.964;2023-07-13T10:36:14;7.70;;;2.80;;
13872;SDS011;7006;51.494;11.964;2023-07-13T10:38:44;5.93;;;3.00;;
13872;SDS011;7006;51.494;11.964;2023-07-13T10:41:15;3.27;;;2.90;;
13872;SDS011;7006;51.494;11.964;2023-07-13T10:43:45;4.03;;;2.50;;
13872;SDS011;7006;51.494;11.964;2023-07-13T10:46:16;4.00;;;2.77;;
13872;SDS011;7006;51.494;11.964;2023-07-13T10:48:45;7.40;;;2.87;;
13872;SDS011;7006;51.494;11.964;2023-07-13T10:51:17;3.73;;;2.40;;
13872;SDS011;7006;51.494;11.964;2023-07-13T10:53:46;2.90;;;2.07;;
13872;SDS011;7006;51.494;11.964;2023-07-13T10:56:19;5.63;;;2.10;;
13872;SDS011;7006;51.494;11.964;2023-07-13T10:59:01;3.17;;;2.47;;
13872;SDS011;7006;51.494;11.964;2023-07-13T11:01:38;3.90;;;2.60;;
13872;SDS011;7006;51.494;11.964;2023-07-13T11:04:08;3.60;;;2.67;;
13872;SDS011;7006;51.494;11.964;2023-07-13T11:06:42;5.67;;;2.70;;
13872;SDS011;7006;51.494;11.964;2023-07-13T11:09:19;3.10;;;2.00;;
13872;SDS011;7006;51.494;11.964;2023-07-13T11:11:47;4.20;;;2.20;;
13872;SDS011;7006;51.494;11.964;2023-07-13T11:14:26;4.03;;;2.13;;
13872;SDS011;7006;51.494;11.964;2023-07-13T11:16:55;2.87;;;1.70;;
13872;SDS011;7006;51.494;11.964;2023-07-13T11:19:28;5.20;;;1.50;;
13872;SDS011;7006;51.494;11.964;2023-07-13T11:22:16;3.20;;;1.33;;
13872;SDS011;7006;51.494;11.964;2023-07-13T11:24:50;2.93;;;1.20;;
13872;SDS011;7006;51.494;11.964;2023-07-13T11:27:22;2.93;;;1.30;;
13872;SDS011;7006;51.494;11.964;2023-07-13T11:29:51;2.30;;;1.30;;
13872;SDS011;7006;51.494;11.964;2023-07-13T11:32:22;2.97;;;1.27;;
13872;SDS011;7006;51.494;11.964;2023-07-13T11:34:52;2.63;;;1.20;;
13872;SDS011;7006;51.494;11.964;2023-07-13T11:37:23;4.23;;;1.40;;
13872;SDS011;7006;51.494;11.964;2023-07-13T11:39:53;2.77;;;1.30;;
13872;SDS011;7006;51.494;11.964;2023-07-13T11:42:21;4.27;;;1.37;;
13872;SDS011;7006;51.494;11.964;2023-07-13T11:44:50;2.20;;;1.30;;
13872;SDS011;7006;51.494;11.964;2023-07-13T11:47:20;3.13;;;1.30;;
13872;SDS011;7006;51.494;11.964;2023-07-13T11:49:49;2.57;;;1.60;;
13872;SDS011;7006;51.494;11.964;2023-07-13T11:52:27;2.20;;;1.20;;
13872;SDS011;7006;51.494;11.964;2023-07-13T11:55:00;3.20;;;1.57;;
13872;SDS011;7006;51.494;11.964;2023-07-13T11:57:30;2.83;;;1.17;;
13872;SDS011;7006;51.494;11.964;2023-07-13T12:00:00;3.50;;;1.37;;
13872;SDS011;7006;51.494;11.964;2023-07-13T12:02:31;5.03;;;1.80;;
13872;SDS011;7006;51.494;11.964;2023-07-13T12:05:00;3.00;;;1.20;;
13872;SDS011;7006;51.494;11.964;2023-07-13T12:07:30;3.83;;;1.40;;
13872;SDS011;7006;51.494;11.964;2023-07-13T12:10:03;3.13;;;1.23;;
13872;SDS011;7006;51.494;11.964;2023-07-13T12:12:40;3.07;;;1.27;;
13872;SDS011;7006;51.494;11.964;2023-07-13T12:15:13;3.17;;;1.20;;
13872;SDS011;7006;51.494;11.964;2023-07-13T12:17:41;1.97;;;1.00;;
13872;SDS011;7006;51.494;11.964;2023-07-13T12:20:17;4.70;;;1.30;;
13872;SDS011;7006;51.494;11.964;2023-07-13T12:22:47;3.30;;;1.30;;
13872;SDS011;7006;51.494;11.964;2023-07-13T12:25:18;3.30;;;1.93;;
13872;SDS011;7006;51.494;11.964;2023-07-13T12:27:46;2.80;;;1.37;;
13872;SDS011;7006;51.494;11.964;2023-07-13T12:30:25;2.97;;;1.33;;
13872;SDS011;7006;51.494;11.964;2023-07-13T12:32:59;3.47;;;1.20;;
13872;SDS011;7006;51.494;11.964;2023-07-13T12:35:28;5.83;;;1.60;;
13872;SDS011;7006;51.494;11.964;2023-07-13T12:38:00;2.17;;;1.10;;
13872;SDS011;7006;51.494;11.964;2023-07-13T12:40:32;2.10;;;1.20;;
13872;SDS011;7006;51.494;11.964;2023-07-13T12:43:02;9.27;;;1.37;;
13872;SDS011;7006;51.494;11.964;2023-07-13T12:45:32;2.50;;;1.43;;
13872;SDS011;7006;51.494;11.964;2023-07-13T12:48:03;3.57;;;1.20;;
13872;SDS011;7006;51.494;11.964;2023-07-13T12:50:36;5.00;;;1.17;;
13872;SDS011;7006;51.494;11.964;2023-07-13T12:53:09;4.13;;;1.30;;
13872;SDS011;7006;51.494;11.964;2023-07-13T12:55:43;2.73;;;1.43;;
13872;SDS011;7006;51.494;11.964;2023-07-13T12:58:13;5.87;;;1.40;;
13872;SDS011;7006;51.494;11.964;2023-07-13T13:00:47;2.80;;;1.30;;
13872;SDS011;7006;51.494;11.964;2023-07-13T13:03:19;3.43;;;1.53;;
13872;SDS011;7006;51.494;11.964;2023-07-13T13:05:49;5.80;;;1.77;;
13872;SDS011;7006;51.494;11.964;2023-07-13T13:08:17;3.30;;;1.20;;
13872;SDS011;7006;51.494;11.964;2023-07-13T13:10:47;3.90;;;1.40;;
13872;SDS011;7006;51.494;11.964;2023-07-13T13:13:15;3.50;;;1.30;;
13872;SDS011;7006;51.494;11.964;2023-07-13T13:15:43;4.67;;;1.30;;
13872;SDS011;7006;51.494;11.964;2023-07-13T13:18:15;6.63;;;1.43;;
13872;SDS011;7006;51.494;11.964;2023-07-13T13:20:45;6.20;;;1.77;;
13872;SDS011;7006;51.494;11.964;2023-07-13T13:23:14;6.90;;;1.77;;
13872;SDS011;7006;51.494;11.964;2023-07-13T13:25:43;3.03;;;1.27;;
13872;SDS011;7006;51.494;11.964;2023-07-13T13:28:16;2.50;;;1.30;;
13872;SDS011;7006;51.494;11.964;2023-07-13T13:30:45;2.10;;;1.20;;
13872;SDS011;7006;51.494;11.964;2023-07-13T13:33:14;1.97;;;1.17;;
13872;SDS011;7006;51.494;11.964;2023-07-13T13:35:42;2.80;;;1.40;;
13872;SDS011;7006;51.494;11.964;2023-07-13T13:38:11;6.93;;;1.60;;
13872;SDS011;7006;51.494;11.964;2023-07-13T13:40:40;2.50;;;1.30;;
13872;SDS011;7006;51.494;11.964;2023-07-13T13:43:16;5.03;;;1.50;;
13872;SDS011;7006;51.494;11.964;2023-07-13T13:45:44;2.33;;;1.30;;
13872;SDS011;7006;51.494;11.964;2023-07-13T13:48:14;2.27;;;1.30;;
13872;SDS011;7006;51.494;11.964;2023-07-13T13:50:42;3.00;;;1.67;;
13872;SDS011;7006;51.494;11.964;2023-07-13T13:53:11;2.97;;;1.20;;
13872;SDS011;7006;51.494;11.964;2023-07-13T13:55:40;3.83;;;1.47;;
13872;SDS011;7006;51.494;11.964;2023-07-13T13:58:09;3.40;;;1.50;;
13872;SDS011;7006;51.494;11.964;2023-07-13T14:00:42;3.00;;;1.50;;
13872;SDS011;7006;51.494;11.964;2023-07-13T14:03:13;2.13;;;1.40;;
13872;SDS011;7006;51.494;11.964;2023-07-13T14:05:42;2.60;;;1.40;;
13872;SDS011;7006;51.494;11.964;2023-07-13T14:08:12;3.13;;;1.57;;
13872;SDS011;7006;51.494;11.964;2023-07-13T14:10:41;3.83;;;1.40;;
13872;SDS011;7006;51.494;11.964;2023-07-13T14:13:14;3.63;;;1.23;;
13872;SDS011;7006;51.494;11.964;2023-07-13T14:15:47;3.00;;;1.20;;
13872;SDS011;7006;51.494;11.964;2023-07-13T14:18:15;3.30;;;1.30;;
13872;SDS011;7006;51.494;11.964;2023-07-13T14:20:44;3.03;;;1.70;;
13872;SDS011;7006;51.494;11.964;2023-07-13T14:23:13;3.50;;;1.60;;
13872;SDS011;7006;51.494;11.964;2023-07-13T14:25:42;3.20;;;1.60;;
13872;SDS011;7006;51.494;11.964;2023-07-13T14:28:25;2.90;;;1.60;;
13872;SDS011;7006;51.494;11.964;2023-07-13T14:30:56;3.30;;;1.80;;
13872;SDS011;7006;51.494;11.964;2023-07-13T14:33:24;2.90;;;1.47;;
13872;SDS011;7006;51.494;11.964;2023-07-13T14:35:52;3.80;;;1.40;;
13872;SDS011;7006;51.494;11.964;2023-07-13T14:38:20;3.07;;;1.40;;
13872;SDS011;7006;51.494;11.964;2023-07-13T14:40:48;2.90;;;1.30;;
13872;SDS011;7006;51.494;11.964;2023-07-13T14:43:17;2.43;;;1.30;;
13872;SDS011;7006;51.494;11.964;2023-07-13T14:45:46;3.90;;;1.83;;
13872;SDS011;7006;51.494;11.964;2023-07-13T14:48:18;2.40;;;1.40;;
13872;SDS011;7006;51.494;11.964;2023-07-13T14:50:47;5.20;;;1.80;;
13872;SDS011;7006;51.494;11.964;2023-07-13T14:53:15;2.20;;;1.40;;
13872;SDS011;7006;51.494;11.964;2023-07-13T14:55:43;3.07;;;1.40;;
13872;SDS011;7006;51.494;11.964;2023-07-13T14:58:11;3.50;;;1.40;;
13872;SDS011;7006;51.494;11.964;2023-07-13T15:00:39;2.80;;;1.50;;
13872;SDS011;7006;51.494;11.964;2023-07-13T15:03:11;4.37;;;1.60;;
13872;SDS011;7006;51.494;11.964;2023-07-13T15:05:49;2.40;;;1.40;;